PTY weather

Tocumen International Airport
Tocumen, Panamá Province, Panama

Public forecast

Using degrees Celsius for public forecast. Weather courtesy of forecast.io.

Current aviation weather report (METAR) for Tocumen International Airport

Retrieved 2019/10/16 23:00 UTC (10 minutes ago):

MPTO 162300Z 00000KT 9999 SCT018 27/22 Q1009 NOSIG

Aviation forecast (TAF) for Tocumen International Airport

Retrieved 2019/10/16 18:33 UTC (5 hours ago):

TAF MPTO 161700Z 1618/1724 31006KT 9999 SCT018 SCT090 TEMPO 1619/1621 18007KT BECMG 1706/1710 VRB02KT TEMPO 1712/1714 05004KT PROB30 1716/1719 19008KT 6000 TSRA SCT014CB BKN080